createdAt,value
2022-10-28T00:01:34.044Z,10.70
2022-10-28T00:04:03.281Z,10.68
2022-10-28T00:06:34.111Z,10.67
2022-10-28T00:09:05.554Z,10.62
2022-10-28T00:11:38.484Z,10.66
2022-10-28T00:14:08.752Z,10.68
2022-10-28T00:16:38.694Z,10.67
2022-10-28T00:19:09.295Z,10.59
2022-10-28T00:21:39.385Z,10.64
2022-10-28T00:24:08.761Z,10.63
2022-10-28T00:26:41.558Z,10.61
2022-10-28T00:29:11.783Z,10.59
2022-10-28T00:31:40.532Z,10.59
2022-10-28T00:34:11.882Z,10.60
2022-10-28T00:36:42.312Z,10.60
2022-10-28T00:39:13.362Z,10.54
2022-10-28T00:41:45.260Z,10.60
2022-10-28T00:44:49.456Z,10.65
2022-10-28T00:47:21.456Z,10.52
2022-10-28T00:49:53.447Z,10.58
2022-10-28T00:52:27.797Z,10.56
2022-10-28T00:54:58.859Z,10.58
2022-10-28T00:57:38.174Z,10.58
2022-10-28T01:00:09.174Z,10.58
2022-10-28T01:02:45.099Z,10.55
2022-10-28T01:05:15.913Z,10.50
2022-10-28T01:07:45.425Z,10.54
2022-10-28T01:10:16.440Z,10.49
2022-10-28T01:12:59.486Z,10.49
2022-10-28T01:15:39.978Z,10.47
2022-10-28T01:18:21.634Z,10.47
2022-10-28T01:21:47.806Z,10.44
2022-10-28T01:24:31.050Z,10.44
2022-10-28T01:27:27.511Z,10.43
2022-10-28T01:30:10.396Z,10.43
2022-10-28T01:32:52.807Z,10.39
2022-10-28T01:35:28.468Z,10.37
2022-10-28T01:38:23.225Z,10.41
2022-10-28T01:40:56.599Z,10.36
2022-10-28T01:43:31.311Z,10.36
2022-10-28T01:46:03.776Z,10.34
2022-10-28T01:48:39.347Z,10.24
2022-10-28T01:51:14.790Z,10.20
2022-10-28T01:53:47.205Z,10.13
2022-10-28T01:56:21.174Z,10.09
2022-10-28T01:58:51.509Z,10.02
2022-10-28T02:01:21.414Z,10.00
2022-10-28T02:03:53.322Z,10.05
2022-10-28T02:06:25.839Z,10.12
2022-10-28T02:09:11.859Z,10.11
2022-10-28T02:11:52.298Z,10.12
2022-10-28T02:14:34.877Z,10.10
2022-10-28T02:17:14.468Z,10.06
2022-10-28T02:19:53.114Z,10.11
2022-10-28T02:22:28.120Z,10.15
2022-10-28T02:25:07.152Z,10.30
2022-10-28T02:27:49.658Z,10.29
2022-10-28T02:30:22.130Z,10.29
2022-10-28T02:32:55.646Z,10.40
2022-10-28T02:35:32.733Z,10.49
2022-10-28T02:38:06.271Z,10.49
2022-10-28T02:40:36.614Z,10.51
2022-10-28T02:43:08.116Z,10.51
2022-10-28T02:45:41.383Z,10.51
2022-10-28T02:48:14.673Z,10.52
2022-10-28T02:50:52.763Z,10.53
2022-10-28T02:53:24.557Z,10.47
2022-10-28T02:55:56.954Z,10.55
2022-10-28T02:58:25.486Z,10.57
2022-10-28T03:00:54.261Z,10.55
2022-10-28T03:03:22.985Z,10.57
2022-10-28T03:05:53.146Z,10.57
2022-10-28T03:08:21.800Z,10.50
2022-10-28T03:10:50.934Z,10.51
2022-10-28T03:13:20.306Z,10.50
2022-10-28T03:15:49.593Z,10.46
2022-10-28T03:18:18.584Z,10.44
2022-10-28T03:20:47.694Z,10.39
2022-10-28T03:23:17.523Z,10.38
2022-10-28T03:25:45.916Z,10.34
2022-10-28T03:28:14.580Z,10.28
2022-10-28T03:30:44.091Z,10.23
2022-10-28T03:33:12.873Z,10.18
2022-10-28T03:35:41.149Z,10.14
2022-10-28T03:38:09.532Z,10.10
2022-10-28T03:40:39.656Z,10.09
2022-10-28T03:43:08.365Z,10.09
2022-10-28T03:45:36.969Z,10.08
2022-10-28T03:48:06.751Z,9.98
2022-10-28T03:50:35.281Z,10.06
2022-10-28T03:53:04.374Z,10.05
2022-10-28T03:55:36.606Z,10.01
2022-10-28T03:58:07.702Z,10.01
2022-10-28T04:00:38.233Z,10.00
2022-10-28T04:03:06.570Z,10.04
2022-10-28T04:05:35.294Z,10.08
2022-10-28T04:08:03.579Z,10.06
2022-10-28T04:10:32.240Z,10.10
2022-10-28T04:13:06.049Z,10.19
2022-10-28T04:15:35.041Z,10.17
2022-10-28T04:18:03.918Z,10.14
2022-10-28T04:20:33.615Z,10.16
2022-10-28T04:23:05.723Z,10.17
2022-10-28T04:25:34.848Z,10.16
2022-10-28T04:28:03.698Z,10.22
2022-10-28T04:30:34.294Z,10.23
2022-10-28T04:33:03.246Z,10.24
2022-10-28T04:35:31.819Z,10.24
2022-10-28T04:38:00.344Z,10.24
2022-10-28T04:40:29.413Z,10.24
2022-10-28T04:42:59.134Z,10.21
2022-10-28T04:45:27.862Z,10.24
2022-10-28T04:48:01.221Z,10.27
2022-10-28T04:50:30.913Z,10.33
2022-10-28T04:52:59.488Z,10.34
2022-10-28T04:55:28.209Z,10.32
2022-10-28T04:57:57.510Z,10.38
2022-10-28T05:00:26.860Z,10.35
2022-10-28T05:02:56.804Z,10.35
2022-10-28T05:05:29.661Z,10.37
2022-10-28T05:07:58.206Z,10.41
2022-10-28T05:10:26.826Z,10.44
2022-10-28T05:12:55.294Z,10.38
2022-10-28T05:15:24.011Z,10.30
2022-10-28T05:17:53.332Z,10.32
2022-10-28T05:20:22.815Z,10.30
2022-10-28T05:22:58.015Z,10.29
2022-10-28T05:25:26.814Z,10.23
2022-10-28T05:27:55.758Z,10.29
2022-10-28T05:30:25.883Z,10.43
2022-10-28T05:33:01.009Z,10.52
2022-10-28T05:35:30.803Z,10.56
2022-10-28T05:38:01.367Z,10.57
2022-10-28T05:40:33.628Z,10.61
2022-10-28T05:43:03.551Z,10.65
2022-10-28T05:45:33.078Z,10.68
2022-10-28T05:48:01.730Z,10.52
2022-10-28T05:50:31.019Z,10.56
2022-10-28T05:53:00.969Z,10.58
2022-10-28T05:55:31.743Z,10.65
2022-10-28T05:57:59.957Z,10.73
2022-10-28T06:00:29.082Z,10.70
2022-10-28T06:03:07.004Z,10.66
2022-10-28T06:05:35.473Z,10.70
2022-10-28T06:08:06.387Z,10.77
2022-10-28T06:10:35.425Z,10.68
2022-10-28T06:13:02.211Z,10.78
2022-10-28T06:15:30.805Z,10.78
2022-10-28T06:17:59.868Z,10.76
2022-10-28T06:20:28.232Z,10.81
2022-10-28T06:22:56.780Z,10.87
2022-10-28T06:25:27.946Z,10.89
2022-10-28T06:28:01.468Z,10.89
2022-10-28T06:30:30.859Z,10.92
2022-10-28T06:33:00.018Z,11.03
2022-10-28T06:35:28.244Z,11.16
2022-10-28T06:37:57.234Z,11.12
2022-10-28T06:40:28.111Z,11.18
2022-10-28T06:42:59.791Z,11.21
2022-10-28T06:45:29.083Z,11.22
2022-10-28T06:48:00.082Z,11.23
2022-10-28T06:50:30.406Z,11.18
2022-10-28T06:52:59.500Z,11.20
2022-10-28T06:55:29.967Z,11.20
2022-10-28T06:58:08.961Z,11.26
2022-10-28T07:00:37.761Z,11.31
2022-10-28T07:03:06.498Z,11.33
2022-10-28T07:05:35.282Z,11.39
2022-10-28T07:08:03.615Z,11.44
2022-10-28T07:10:33.494Z,11.53
2022-10-28T07:13:02.610Z,11.53
2022-10-28T07:15:32.098Z,11.62
2022-10-28T07:18:02.017Z,11.68
2022-10-28T07:20:33.075Z,11.86
2022-10-28T07:23:03.250Z,11.87
2022-10-28T07:25:33.160Z,12.03
2022-10-28T07:28:02.275Z,12.19
2022-10-28T07:30:30.595Z,12.10
2022-10-28T07:33:01.727Z,12.09
2022-10-28T07:35:30.608Z,12.14
2022-10-28T07:37:59.559Z,12.17
2022-10-28T07:40:28.296Z,12.22
2022-10-28T07:42:59.540Z,12.27
2022-10-28T07:45:28.164Z,12.28
2022-10-28T07:47:57.046Z,12.35
2022-10-28T07:50:26.550Z,12.45
2022-10-28T07:52:55.459Z,12.58
2022-10-28T07:55:26.284Z,12.70
2022-10-28T07:57:55.671Z,12.92
2022-10-28T08:00:25.890Z,12.98
2022-10-28T08:02:55.083Z,13.17
2022-10-28T08:05:23.412Z,13.30
2022-10-28T08:07:52.234Z,13.51
2022-10-28T08:10:22.646Z,13.58
2022-10-28T08:12:51.466Z,13.82
2022-10-28T08:15:23.933Z,14.06
2022-10-28T08:17:56.242Z,14.19
2022-10-28T08:20:25.206Z,14.35
2022-10-28T08:22:53.834Z,14.43
2022-10-28T08:25:22.685Z,14.61
2022-10-28T08:27:51.372Z,14.71
2022-10-28T08:30:20.265Z,14.89
2022-10-28T08:32:48.517Z,14.71
2022-10-28T08:35:18.814Z,14.59
2022-10-28T08:37:53.145Z,14.64
2022-10-28T08:40:30.941Z,14.77
2022-10-28T08:43:08.081Z,14.82
2022-10-28T08:45:45.061Z,14.92
2022-10-28T08:48:21.534Z,14.78
2022-10-28T08:50:56.922Z,14.71
2022-10-28T08:53:30.268Z,14.60
2022-10-28T08:56:07.041Z,14.49
2022-10-28T08:58:37.880Z,14.49
2022-10-28T09:01:10.963Z,14.52
2022-10-28T09:03:43.369Z,14.63
2022-10-28T09:06:13.900Z,14.67
2022-10-28T09:08:44.864Z,14.85
2022-10-28T09:11:37.379Z,14.88
2022-10-28T09:14:21.094Z,15.03
2022-10-28T09:16:51.417Z,15.23
2022-10-28T09:19:37.207Z,15.35
2022-10-28T09:22:22.172Z,15.42
2022-10-28T09:24:55.748Z,15.60
2022-10-28T09:27:45.438Z,15.43
2022-10-28T09:30:28.347Z,15.43
2022-10-28T09:33:07.255Z,15.58
2022-10-28T09:35:41.290Z,15.83
2022-10-28T09:38:15.247Z,15.89
2022-10-28T09:40:50.810Z,15.97
2022-10-28T09:43:28.047Z,16.04
2022-10-28T09:46:03.687Z,16.01
2022-10-28T09:48:35.112Z,16.00
2022-10-28T09:51:04.316Z,16.19
2022-10-28T09:53:45.660Z,16.32
2022-10-28T09:56:15.187Z,16.37
2022-10-28T09:58:48.067Z,16.53
2022-10-28T10:01:19.248Z,16.83
2022-10-28T10:03:50.409Z,16.98
2022-10-28T10:06:22.774Z,17.05
2022-10-28T10:08:55.211Z,17.03
2022-10-28T10:11:32.009Z,17.03
2022-10-28T10:14:06.357Z,16.99
2022-10-28T10:16:43.851Z,16.87
2022-10-28T10:19:12.951Z,16.88
2022-10-28T10:21:47.076Z,16.87
2022-10-28T10:24:30.298Z,17.22
2022-10-28T10:27:01.402Z,17.24
2022-10-28T10:29:30.755Z,17.18
2022-10-28T10:32:08.753Z,17.23
2022-10-28T10:34:39.242Z,17.45
2022-10-28T10:37:25.046Z,17.33
2022-10-28T10:40:26.333Z,17.32
2022-10-28T10:43:12.893Z,17.30
2022-10-28T10:45:43.394Z,17.44
2022-10-28T10:48:19.065Z,17.46
2022-10-28T10:50:49.614Z,17.93
2022-10-28T10:53:24.828Z,17.86
2022-10-28T10:55:58.850Z,18.06
2022-10-28T10:58:31.639Z,17.98
2022-10-28T11:01:02.774Z,18.11
2022-10-28T11:03:37.042Z,18.08
2022-10-28T11:06:23.212Z,18.10
2022-10-28T11:08:58.478Z,18.39
2022-10-28T11:11:36.125Z,18.64
2022-10-28T11:14:07.423Z,18.75
2022-10-28T11:16:48.126Z,18.89
2022-10-28T11:19:22.322Z,18.87
2022-10-28T11:22:05.063Z,18.88
2022-10-28T11:25:08.563Z,18.94
2022-10-28T11:27:55.476Z,19.04
2022-10-28T11:30:39.908Z,18.88
2022-10-28T11:33:29.372Z,18.80
2022-10-28T11:36:09.518Z,18.83
2022-10-28T11:39:04.720Z,18.77
2022-10-28T11:41:46.000Z,18.79
2022-10-28T11:44:30.419Z,18.71
2022-10-28T11:47:12.943Z,18.71
2022-10-28T11:50:09.677Z,18.74
2022-10-28T11:52:58.165Z,18.75
2022-10-28T11:55:34.757Z,19.05
2022-10-28T11:58:14.725Z,19.06
2022-10-28T12:00:59.326Z,19.03
2022-10-28T12:03:48.075Z,18.99
2022-10-28T12:06:31.179Z,19.13
2022-10-28T12:09:21.454Z,19.14
2022-10-28T12:12:03.069Z,19.04
2022-10-28T12:14:41.708Z,19.08
2022-10-28T12:17:15.755Z,19.26
2022-10-28T12:19:48.857Z,19.18
2022-10-28T12:22:25.215Z,19.05
2022-10-28T12:24:56.724Z,19.11
2022-10-28T12:27:31.200Z,18.98
2022-10-28T12:30:03.596Z,19.08
2022-10-28T12:32:37.756Z,19.15
2022-10-28T12:35:16.226Z,19.31
2022-10-28T12:37:49.189Z,19.25
2022-10-28T12:40:21.422Z,19.35
2022-10-28T12:42:54.836Z,19.50
2022-10-28T12:45:25.256Z,19.37
2022-10-28T12:48:01.480Z,19.48
2022-10-28T12:50:39.516Z,19.44
2022-10-28T12:53:28.986Z,19.45
2022-10-28T12:56:01.172Z,19.37
2022-10-28T12:58:35.670Z,19.38
2022-10-28T13:01:13.720Z,19.33
2022-10-28T13:03:44.307Z,19.41
2022-10-28T13:06:43.362Z,19.42
2022-10-28T13:09:40.851Z,19.38
2022-10-28T13:12:50.875Z,19.26
2022-10-28T13:15:51.894Z,19.29
2022-10-28T13:18:35.735Z,19.24
2022-10-28T13:21:16.916Z,19.21
2022-10-28T13:23:54.129Z,19.25
2022-10-28T13:26:26.352Z,19.32
2022-10-28T13:29:02.238Z,19.48
2022-10-28T13:31:42.546Z,19.49
2022-10-28T13:34:13.910Z,19.61
2022-10-28T13:36:52.244Z,19.72
2022-10-28T13:39:40.277Z,19.74
2022-10-28T13:42:48.306Z,19.72
2022-10-28T13:45:52.700Z,19.78
2022-10-28T13:48:54.970Z,19.80
2022-10-28T13:51:48.596Z,19.72
2022-10-28T13:54:28.937Z,19.65
2022-10-28T13:57:05.919Z,19.52
2022-10-28T13:59:51.097Z,19.50
2022-10-28T14:02:40.260Z,19.32
2022-10-28T14:05:10.814Z,19.19
2022-10-28T14:07:59.099Z,19.12
2022-10-28T14:10:29.519Z,19.01
2022-10-28T14:13:00.949Z,19.14
2022-10-28T14:15:32.533Z,18.92
2022-10-28T14:18:22.479Z,18.76
2022-10-28T14:21:01.015Z,18.58
2022-10-28T14:24:08.574Z,18.45
2022-10-28T14:27:24.650Z,18.33
2022-10-28T14:30:14.501Z,18.40
2022-10-28T14:32:45.647Z,18.21
2022-10-28T14:35:24.499Z,18.06
2022-10-28T14:38:31.235Z,17.92
2022-10-28T14:41:17.235Z,17.82
2022-10-28T14:43:59.837Z,17.71
2022-10-28T14:46:44.103Z,17.64
2022-10-28T14:49:21.877Z,17.76
2022-10-28T14:51:52.135Z,17.64
2022-10-28T14:54:28.078Z,17.55
2022-10-28T14:56:58.703Z,17.42
2022-10-28T14:59:30.868Z,17.32
2022-10-28T15:02:03.406Z,17.22
2022-10-28T15:04:32.752Z,17.11
2022-10-28T15:07:02.476Z,17.05
2022-10-28T15:09:33.117Z,16.92
2022-10-28T15:12:07.115Z,16.82
2022-10-28T15:14:38.498Z,16.75
2022-10-28T15:17:19.275Z,16.66
2022-10-28T15:19:49.264Z,16.57
2022-10-28T15:22:21.214Z,16.41
2022-10-28T15:24:57.864Z,16.48
2022-10-28T15:27:29.687Z,16.38
2022-10-28T15:29:58.778Z,16.34
2022-10-28T15:32:32.944Z,16.26
2022-10-28T15:35:24.002Z,16.16
2022-10-28T15:37:55.292Z,16.08
2022-10-28T15:40:29.953Z,15.99
2022-10-28T15:43:02.478Z,15.90
2022-10-28T15:45:33.824Z,15.81
2022-10-28T15:48:13.523Z,15.68
2022-10-28T15:50:41.972Z,15.74
2022-10-28T15:53:40.465Z,15.68
2022-10-28T15:56:18.861Z,15.66
2022-10-28T15:59:01.781Z,15.61
2022-10-28T16:01:38.454Z,15.64
2022-10-28T16:04:08.633Z,15.59
2022-10-28T16:06:38.725Z,15.63
2022-10-28T16:09:19.480Z,15.57
2022-10-28T16:11:53.993Z,15.61
2022-10-28T16:14:35.669Z,15.53
2022-10-28T16:17:18.409Z,15.58
2022-10-28T16:19:52.905Z,15.58
2022-10-28T16:22:22.176Z,15.58
2022-10-28T16:24:52.438Z,15.57
2022-10-28T16:27:23.120Z,15.58
2022-10-28T16:29:53.805Z,15.48
2022-10-28T16:32:28.360Z,15.58
2022-10-28T16:34:58.290Z,15.62
2022-10-28T16:37:29.966Z,15.60
2022-10-28T16:39:59.673Z,15.55
2022-10-28T16:42:28.868Z,15.58
2022-10-28T16:44:58.799Z,15.60
2022-10-28T16:47:28.193Z,15.65
2022-10-28T16:49:58.529Z,15.56
2022-10-28T16:52:29.312Z,15.57
2022-10-28T16:55:00.184Z,15.56
2022-10-28T16:57:29.385Z,15.66
2022-10-28T16:59:59.541Z,15.78
2022-10-28T17:02:30.881Z,15.92
2022-10-28T17:05:01.628Z,15.97
2022-10-28T17:07:30.686Z,16.01
2022-10-28T17:09:59.521Z,16.08
2022-10-28T17:12:29.614Z,16.11
2022-10-28T17:14:59.385Z,16.05
2022-10-28T17:17:28.040Z,15.96
2022-10-28T17:19:56.983Z,15.97
2022-10-28T17:22:25.597Z,16.00
2022-10-28T17:24:54.698Z,16.07
2022-10-28T17:27:23.550Z,16.04
2022-10-28T17:29:52.681Z,16.04
2022-10-28T17:32:22.919Z,15.98
2022-10-28T17:34:52.073Z,16.02
2022-10-28T17:37:21.300Z,16.00
2022-10-28T17:39:50.349Z,15.98
2022-10-28T17:42:18.991Z,15.94
2022-10-28T17:44:47.864Z,15.90
2022-10-28T17:47:16.698Z,15.92
2022-10-28T17:49:47.387Z,15.99
2022-10-28T17:52:15.801Z,16.02
2022-10-28T17:54:48.087Z,15.96
2022-10-28T17:57:17.241Z,15.93
2022-10-28T17:59:46.134Z,15.87
2022-10-28T18:02:15.445Z,15.72
2022-10-28T18:04:46.462Z,15.67
2022-10-28T18:07:15.458Z,15.69
2022-10-28T18:09:44.659Z,15.59
2022-10-28T18:12:13.208Z,15.58
2022-10-28T18:14:42.514Z,15.48
2022-10-28T18:17:14.618Z,15.49
2022-10-28T18:19:43.340Z,15.52
2022-10-28T18:22:17.076Z,15.52
2022-10-28T18:24:45.810Z,15.47
2022-10-28T18:27:14.291Z,15.39
2022-10-28T18:29:43.287Z,15.44
2022-10-28T18:32:12.338Z,15.38
2022-10-28T18:34:41.635Z,15.38
2022-10-28T18:37:12.362Z,15.34
2022-10-28T18:39:42.837Z,15.29
2022-10-28T18:42:12.456Z,15.29
2022-10-28T18:44:42.266Z,15.25
2022-10-28T18:47:11.335Z,15.21
2022-10-28T18:49:39.898Z,15.23
2022-10-28T18:52:08.425Z,15.16
2022-10-28T18:54:37.323Z,15.07
2022-10-28T18:57:07.426Z,15.02
2022-10-28T18:59:43.227Z,14.97
2022-10-28T19:02:22.924Z,15.09
2022-10-28T19:04:52.227Z,14.98
2022-10-28T19:07:20.783Z,14.98
2022-10-28T19:09:49.276Z,14.93
2022-10-28T19:12:19.555Z,14.89
2022-10-28T19:14:48.299Z,14.89
2022-10-28T19:17:17.605Z,14.92
2022-10-28T19:19:46.980Z,14.93
2022-10-28T19:22:15.706Z,14.91
2022-10-28T19:24:45.417Z,14.92
2022-10-28T19:27:13.906Z,14.87
2022-10-28T19:29:45.627Z,14.94
2022-10-28T19:32:14.377Z,14.92
2022-10-28T19:34:42.821Z,14.88
2022-10-28T19:37:13.169Z,14.90
2022-10-28T19:39:41.860Z,14.88
2022-10-28T19:42:10.662Z,14.89
2022-10-28T19:44:39.236Z,14.91
2022-10-28T19:47:10.062Z,14.90
2022-10-28T19:49:43.439Z,14.88
2022-10-28T19:52:13.476Z,14.79
2022-10-28T19:54:42.269Z,14.88
2022-10-28T19:59:41.803Z,15.24
2022-10-28T20:02:12.939Z,15.35
2022-10-28T20:04:41.733Z,15.29
2022-10-28T20:07:10.316Z,15.26
2022-10-28T20:09:38.805Z,15.45
2022-10-28T20:12:08.651Z,15.53
2022-10-28T20:14:37.672Z,15.53
2022-10-28T20:17:07.255Z,15.43
2022-10-28T20:19:38.808Z,15.44
2022-10-28T20:22:07.400Z,15.32
2022-10-28T20:24:36.475Z,15.33
2022-10-28T20:27:05.293Z,15.29
2022-10-28T20:29:33.859Z,15.15
2022-10-28T20:32:02.276Z,15.09
2022-10-28T20:34:30.541Z,15.15
2022-10-28T20:37:01.387Z,15.17
2022-10-28T20:39:29.858Z,15.11
2022-10-28T20:41:59.474Z,15.08
2022-10-28T20:44:29.838Z,14.97
2022-10-28T20:46:58.516Z,15.07
2022-10-28T20:49:27.280Z,15.04
2022-10-28T20:51:56.625Z,14.93
2022-10-28T20:54:27.336Z,14.81
2022-10-28T20:56:56.009Z,14.75
2022-10-28T20:59:24.916Z,14.63
2022-10-28T21:01:53.715Z,14.55
2022-10-28T21:04:22.496Z,14.45
2022-10-28T21:06:51.478Z,14.34
2022-10-28T21:09:20.491Z,14.18
2022-10-28T21:11:50.898Z,14.19
2022-10-28T21:14:19.643Z,14.21
2022-10-28T21:16:51.083Z,14.07
2022-10-28T21:19:20.177Z,14.03
2022-10-28T21:21:49.536Z,13.92
2022-10-28T21:24:18.467Z,13.92
2022-10-28T21:26:49.800Z,13.84
2022-10-28T21:29:22.699Z,13.87
2022-10-28T21:31:51.231Z,13.81
2022-10-28T21:34:20.513Z,13.71
2022-10-28T21:36:49.364Z,13.63
2022-10-28T21:39:17.980Z,13.54
2022-10-28T21:41:46.873Z,13.48
2022-10-28T21:44:16.272Z,13.38
2022-10-28T21:46:48.278Z,13.30
2022-10-28T21:49:17.547Z,13.26
2022-10-28T21:51:46.049Z,13.23
2022-10-28T21:54:17.941Z,13.17
2022-10-28T21:56:47.734Z,13.11
2022-10-28T21:59:16.273Z,13.07
2022-10-28T22:01:46.811Z,13.03
2022-10-28T22:04:17.238Z,13.00
2022-10-28T22:09:20.167Z,12.92
2022-10-28T22:11:48.870Z,12.90
2022-10-28T22:14:17.750Z,12.85
2022-10-28T22:16:47.547Z,12.86
2022-10-28T22:19:16.443Z,12.82
2022-10-28T22:21:44.944Z,12.78
2022-10-28T22:24:13.535Z,12.81
2022-10-28T22:26:41.950Z,12.77
2022-10-28T22:29:10.812Z,12.78
2022-10-28T22:31:39.736Z,12.73
2022-10-28T22:34:10.030Z,12.70
2022-10-28T22:36:40.482Z,12.70
2022-10-28T22:39:09.034Z,12.66
2022-10-28T22:41:37.516Z,12.79
2022-10-28T22:44:07.545Z,12.98
2022-10-28T22:46:36.785Z,13.00
2022-10-28T22:49:05.869Z,12.97
2022-10-28T22:51:35.895Z,12.96
2022-10-28T22:54:05.675Z,13.00
2022-10-28T22:56:34.595Z,12.91
2022-10-28T22:59:04.137Z,12.82
2022-10-28T23:01:33.091Z,12.94
2022-10-28T23:04:02.689Z,13.04
2022-10-28T23:06:32.035Z,13.00
2022-10-28T23:09:02.474Z,12.99
2022-10-28T23:11:31.113Z,13.08
2022-10-28T23:13:59.733Z,13.08
2022-10-28T23:16:28.496Z,13.01
2022-10-28T23:18:59.980Z,13.03
2022-10-28T23:21:29.329Z,13.00
2022-10-28T23:23:59.897Z,12.97
2022-10-28T23:26:31.253Z,12.92
2022-10-28T23:29:01.825Z,12.85
2022-10-28T23:31:30.681Z,12.80
2022-10-28T23:33:59.597Z,12.74
2022-10-28T23:36:28.159Z,12.68
2022-10-28T23:38:58.197Z,12.66
2022-10-28T23:41:27.071Z,12.56
2022-10-28T23:44:00.892Z,12.56
2022-10-28T23:46:33.611Z,12.43
2022-10-28T23:49:05.849Z,12.50
2022-10-28T23:51:35.248Z,12.46
2022-10-28T23:54:04.078Z,12.38
2022-10-28T23:56:32.745Z,12.40
2022-10-28T23:59:03.315Z,12.35
